This is the latest recevied weather packets stored in our database for station/object WMKJ. If no packets are shown the sender has not sent any weather packets the latest 10 day(s).
| Time | Temp. | Humidity | Pressure | Rain* | Wind** | Luminosity | Snow |
|---|---|---|---|---|---|---|---|
| 1777720222 | 26.67° C | 88% | 1006 hPa | - | - | - | - |
| 1777716631 | 28.89° C | 74% | 1006 hPa | - | - | - | - |
| 1777715992 | 28.89° C | 74% | 1006 hPa | - | - | - | - |
| 1777713020 | 28.89° C | 79% | 1006 hPa | - | - | - | - |
| 1777711203 | 28.89° C | 79% | 1006 hPa | - | - | - | - |
| 1777709420 | 28.89° C | 74% | 1006 hPa | - | - | - | - |
| 1777708799 | 28.89° C | 79% | 1006 hPa | - | - | - | - |
| 1777705822 | 28.89° C | 83% | 1007 hPa | - | - | - | - |
| 1777703394 | 27.78° C | 83% | 1008 hPa | - | - | - | - |
| 1777702229 | 27.78° C | 83% | 1008 hPa | - | - | - | - |
| 1777701592 | 30.56° C | 70% | 1008 hPa | - | - | - | - |
| 1777699192 | 32.78° C | 59% | 1009 hPa | - | - | - | - |
| 1777698624 | 31.67° C | 66% | 1010 hPa | - | - | - | - |
| 1777695020 | 31.67° C | 66% | 1010 hPa | - | - | - | - |
| 1777691991 | 30.56° C | 70% | 1010 hPa | - | - | - | - |
| 1777691420 | 28.89° C | 74% | 1010 hPa | - | - | - | - |
| 1777687829 | 28.89° C | 74% | 1010 hPa | - | - | - | - |
| 1777684223 | 26.67° C | 83% | 1010 hPa | - | - | - | - |
| 1777680620 | 23.89° C | 94% | 1009 hPa | - | - | - | - |
| 1777677019 | 22.78° C | 94% | 1008 hPa | - | - | - | - |
| 1777673419 | 22.78° C | 94% | 1007 hPa | - | - | - | - |
| 1777669831 | 23.89° C | 88% | 1007 hPa | - | - | - | - |
| 1777666219 | 23.89° C | 88% | 1008 hPa | - | - | - | - |
| 1777662619 | 23.89° C | 88% | 1009 hPa | - | - | - | - |
| 1777659019 | 23.89° C | 88% | 1009 hPa | - | - | - | - |
* Rain since midnight (hover to see other rain measurements)
** Current wind speed in m/s (hover to see current wind gust speed)